sensor_id;sensor_type;location;lat;lon;timestamp;P1;durP1;ratioP1;P2;durP2;ratioP2
42586;SDS011;28216;53.362;-6.288;2023-06-19T00:02:02;12.88;;;6.30;;
42586;SDS011;28216;53.362;-6.288;2023-06-19T00:04:29;15.43;;;6.40;;
42586;SDS011;28216;53.362;-6.288;2023-06-19T00:07:26;10.45;;;6.20;;
42586;SDS011;28216;53.362;-6.288;2023-06-19T00:10:00;9.75;;;6.05;;
42586;SDS011;28216;53.362;-6.288;2023-06-19T00:13:12;9.43;;;6.40;;
42586;SDS011;28216;53.362;-6.288;2023-06-19T00:16:42;7.82;;;5.70;;
42586;SDS011;28216;53.362;-6.288;2023-06-19T00:19:53;9.77;;;5.20;;
42586;SDS011;28216;53.362;-6.288;2023-06-19T00:22:47;9.52;;;5.20;;
42586;SDS011;28216;53.362;-6.288;2023-06-19T00:25:23;7.55;;;4.80;;
42586;SDS011;28216;53.362;-6.288;2023-06-19T00:27:53;10.45;;;5.03;;
42586;SDS011;28216;53.362;-6.288;2023-06-19T00:30:21;8.25;;;4.57;;
42586;SDS011;28216;53.362;-6.288;2023-06-19T00:32:49;7.80;;;4.80;;
42586;SDS011;28216;53.362;-6.288;2023-06-19T00:35:19;8.80;;;5.25;;
42586;SDS011;28216;53.362;-6.288;2023-06-19T00:38:05;9.60;;;4.70;;
42586;SDS011;28216;53.362;-6.288;2023-06-19T00:40:34;8.10;;;4.43;;
42586;SDS011;28216;53.362;-6.288;2023-06-19T00:43:05;9.80;;;4.75;;
42586;SDS011;28216;53.362;-6.288;2023-06-19T00:45:35;6.40;;;4.63;;
42586;SDS011;28216;53.362;-6.288;2023-06-19T00:48:09;7.15;;;4.68;;
42586;SDS011;28216;53.362;-6.288;2023-06-19T00:50:35;6.60;;;4.80;;
42586;SDS011;28216;53.362;-6.288;2023-06-19T00:53:02;7.90;;;4.55;;
42586;SDS011;28216;53.362;-6.288;2023-06-19T00:55:51;10.20;;;5.00;;
42586;SDS011;28216;53.362;-6.288;2023-06-19T00:58:21;7.85;;;4.50;;
42586;SDS011;28216;53.362;-6.288;2023-06-19T01:00:52;6.88;;;4.25;;
42586;SDS011;28216;53.362;-6.288;2023-06-19T01:03:30;6.63;;;4.50;;
42586;SDS011;28216;53.362;-6.288;2023-06-19T01:06:43;7.18;;;4.43;;
42586;SDS011;28216;53.362;-6.288;2023-06-19T01:09:48;9.02;;;4.45;;
42586;SDS011;28216;53.362;-6.288;2023-06-19T01:12:27;7.72;;;4.18;;
42586;SDS011;28216;53.362;-6.288;2023-06-19T01:15:06;7.80;;;4.28;;
42586;SDS011;28216;53.362;-6.288;2023-06-19T01:17:38;8.77;;;4.55;;
42586;SDS011;28216;53.362;-6.288;2023-06-19T01:20:10;6.60;;;4.15;;
42586;SDS011;28216;53.362;-6.288;2023-06-19T01:22:43;8.23;;;4.43;;
42586;SDS011;28216;53.362;-6.288;2023-06-19T01:25:12;6.88;;;4.63;;
42586;SDS011;28216;53.362;-6.288;2023-06-19T01:27:41;9.48;;;5.20;;
42586;SDS011;28216;53.362;-6.288;2023-06-19T01:30:15;7.70;;;4.72;;
42586;SDS011;28216;53.362;-6.288;2023-06-19T01:35:36;7.55;;;4.97;;
42586;SDS011;28216;53.362;-6.288;2023-06-19T01:38:04;8.57;;;4.55;;
42586;SDS011;28216;53.362;-6.288;2023-06-19T01:40:32;11.55;;;4.97;;
42586;SDS011;28216;53.362;-6.288;2023-06-19T01:42:59;7.65;;;4.80;;
42586;SDS011;28216;53.362;-6.288;2023-06-19T01:45:27;8.07;;;5.03;;
42586;SDS011;28216;53.362;-6.288;2023-06-19T01:47:56;8.80;;;5.20;;
42586;SDS011;28216;53.362;-6.288;2023-06-19T01:50:25;8.35;;;5.32;;
42586;SDS011;28216;53.362;-6.288;2023-06-19T01:52:52;8.20;;;4.80;;
42586;SDS011;28216;53.362;-6.288;2023-06-19T01:55:18;8.68;;;5.00;;
42586;SDS011;28216;53.362;-6.288;2023-06-19T01:57:46;8.75;;;4.97;;
42586;SDS011;28216;53.362;-6.288;2023-06-19T02:00:27;7.80;;;4.80;;
42586;SDS011;28216;53.362;-6.288;2023-06-19T02:03:04;7.22;;;4.90;;
42586;SDS011;28216;53.362;-6.288;2023-06-19T02:05:35;11.93;;;5.18;;
42586;SDS011;28216;53.362;-6.288;2023-06-19T02:08:06;7.63;;;4.90;;
42586;SDS011;28216;53.362;-6.288;2023-06-19T02:10:32;7.57;;;4.40;;
42586;SDS011;28216;53.362;-6.288;2023-06-19T02:12:57;9.68;;;4.95;;
42586;SDS011;28216;53.362;-6.288;2023-06-19T02:15:23;8.95;;;4.85;;
42586;SDS011;28216;53.362;-6.288;2023-06-19T02:17:51;9.60;;;4.75;;
42586;SDS011;28216;53.362;-6.288;2023-06-19T02:20:20;10.90;;;4.68;;
42586;SDS011;28216;53.362;-6.288;2023-06-19T02:22:49;8.05;;;4.88;;
42586;SDS011;28216;53.362;-6.288;2023-06-19T02:25:17;7.57;;;4.88;;
42586;SDS011;28216;53.362;-6.288;2023-06-19T02:27:46;10.98;;;5.30;;
42586;SDS011;28216;53.362;-6.288;2023-06-19T02:30:11;10.07;;;5.03;;
42586;SDS011;28216;53.362;-6.288;2023-06-19T02:32:37;12.88;;;5.32;;
42586;SDS011;28216;53.362;-6.288;2023-06-19T02:35:09;10.02;;;4.82;;
42586;SDS011;28216;53.362;-6.288;2023-06-19T02:37:40;10.13;;;4.65;;
42586;SDS011;28216;53.362;-6.288;2023-06-19T02:40:09;8.10;;;5.15;;
42586;SDS011;28216;53.362;-6.288;2023-06-19T02:42:38;10.57;;;5.55;;
42586;SDS011;28216;53.362;-6.288;2023-06-19T02:45:04;9.40;;;5.20;;
42586;SDS011;28216;53.362;-6.288;2023-06-19T02:47:30;11.68;;;5.22;;
42586;SDS011;28216;53.362;-6.288;2023-06-19T02:50:01;7.72;;;4.72;;
42586;SDS011;28216;53.362;-6.288;2023-06-19T02:52:45;10.30;;;4.70;;
42586;SDS011;28216;53.362;-6.288;2023-06-19T02:55:11;8.32;;;5.22;;
42586;SDS011;28216;53.362;-6.288;2023-06-19T02:57:42;9.65;;;5.22;;
42586;SDS011;28216;53.362;-6.288;2023-06-19T03:00:12;8.70;;;5.30;;
42586;SDS011;28216;53.362;-6.288;2023-06-19T03:02:41;9.73;;;5.05;;
42586;SDS011;28216;53.362;-6.288;2023-06-19T03:05:26;7.88;;;4.70;;
42586;SDS011;28216;53.362;-6.288;2023-06-19T03:07:58;10.43;;;4.88;;
42586;SDS011;28216;53.362;-6.288;2023-06-19T03:10:29;10.25;;;5.30;;
42586;SDS011;28216;53.362;-6.288;2023-06-19T03:12:56;9.10;;;5.22;;
42586;SDS011;28216;53.362;-6.288;2023-06-19T03:15:24;10.45;;;5.13;;
42586;SDS011;28216;53.362;-6.288;2023-06-19T03:17:53;10.63;;;5.00;;
42586;SDS011;28216;53.362;-6.288;2023-06-19T03:20:19;9.13;;;5.40;;
42586;SDS011;28216;53.362;-6.288;2023-06-19T03:23:06;12.48;;;5.53;;
42586;SDS011;28216;53.362;-6.288;2023-06-19T03:25:34;7.35;;;4.97;;
42586;SDS011;28216;53.362;-6.288;2023-06-19T03:28:01;10.73;;;5.32;;
42586;SDS011;28216;53.362;-6.288;2023-06-19T03:30:38;9.55;;;4.90;;
42586;SDS011;28216;53.362;-6.288;2023-06-19T03:33:05;8.85;;;5.15;;
42586;SDS011;28216;53.362;-6.288;2023-06-19T03:35:34;9.38;;;5.18;;
42586;SDS011;28216;53.362;-6.288;2023-06-19T03:38:02;8.20;;;4.80;;
42586;SDS011;28216;53.362;-6.288;2023-06-19T03:40:33;10.15;;;5.50;;
42586;SDS011;28216;53.362;-6.288;2023-06-19T03:43:01;12.75;;;5.10;;
42586;SDS011;28216;53.362;-6.288;2023-06-19T03:45:29;8.27;;;5.15;;
42586;SDS011;28216;53.362;-6.288;2023-06-19T03:48:09;13.15;;;5.40;;
42586;SDS011;28216;53.362;-6.288;2023-06-19T03:50:35;14.13;;;5.88;;
42586;SDS011;28216;53.362;-6.288;2023-06-19T03:53:23;8.70;;;5.00;;
42586;SDS011;28216;53.362;-6.288;2023-06-19T03:55:52;11.50;;;4.90;;
42586;SDS011;28216;53.362;-6.288;2023-06-19T03:58:28;10.25;;;4.97;;
42586;SDS011;28216;53.362;-6.288;2023-06-19T04:00:55;10.77;;;5.43;;
42586;SDS011;28216;53.362;-6.288;2023-06-19T04:03:29;9.05;;;4.80;;
42586;SDS011;28216;53.362;-6.288;2023-06-19T04:05:58;7.93;;;4.60;;
42586;SDS011;28216;53.362;-6.288;2023-06-19T04:08:27;8.52;;;4.75;;
42586;SDS011;28216;53.362;-6.288;2023-06-19T04:10:55;8.00;;;4.70;;
42586;SDS011;28216;53.362;-6.288;2023-06-19T04:13:30;7.63;;;4.70;;
42586;SDS011;28216;53.362;-6.288;2023-06-19T04:16:03;12.25;;;5.00;;
42586;SDS011;28216;53.362;-6.288;2023-06-19T04:18:28;10.32;;;5.13;;
42586;SDS011;28216;53.362;-6.288;2023-06-19T04:20:56;10.43;;;5.10;;
42586;SDS011;28216;53.362;-6.288;2023-06-19T04:23:27;13.48;;;4.90;;
42586;SDS011;28216;53.362;-6.288;2023-06-19T04:25:53;9.52;;;5.20;;
42586;SDS011;28216;53.362;-6.288;2023-06-19T04:28:18;9.27;;;4.80;;
42586;SDS011;28216;53.362;-6.288;2023-06-19T04:30:54;8.80;;;4.40;;
42586;SDS011;28216;53.362;-6.288;2023-06-19T04:33:28;10.93;;;4.75;;
42586;SDS011;28216;53.362;-6.288;2023-06-19T04:36:01;6.80;;;4.07;;
42586;SDS011;28216;53.362;-6.288;2023-06-19T04:38:27;9.40;;;4.47;;
42586;SDS011;28216;53.362;-6.288;2023-06-19T04:40:55;9.52;;;4.45;;
42586;SDS011;28216;53.362;-6.288;2023-06-19T04:43:24;9.27;;;4.60;;
42586;SDS011;28216;53.362;-6.288;2023-06-19T04:45:49;7.22;;;4.32;;
42586;SDS011;28216;53.362;-6.288;2023-06-19T04:48:20;10.32;;;4.68;;
42586;SDS011;28216;53.362;-6.288;2023-06-19T04:50:49;9.50;;;4.22;;
42586;SDS011;28216;53.362;-6.288;2023-06-19T04:53:15;8.90;;;4.38;;
42586;SDS011;28216;53.362;-6.288;2023-06-19T04:55:41;6.07;;;3.95;;
42586;SDS011;28216;53.362;-6.288;2023-06-19T04:58:08;7.40;;;4.10;;
42586;SDS011;28216;53.362;-6.288;2023-06-19T05:00:36;10.45;;;4.38;;
42586;SDS011;28216;53.362;-6.288;2023-06-19T05:03:06;7.47;;;4.22;;
42586;SDS011;28216;53.362;-6.288;2023-06-19T05:05:32;6.80;;;4.22;;
42586;SDS011;28216;53.362;-6.288;2023-06-19T05:07:59;7.00;;;3.75;;
42586;SDS011;28216;53.362;-6.288;2023-06-19T05:10:32;7.80;;;3.92;;
42586;SDS011;28216;53.362;-6.288;2023-06-19T05:13:01;7.57;;;4.30;;
42586;SDS011;28216;53.362;-6.288;2023-06-19T05:15:34;7.97;;;4.07;;
42586;SDS011;28216;53.362;-6.288;2023-06-19T05:18:03;8.35;;;4.03;;
42586;SDS011;28216;53.362;-6.288;2023-06-19T05:20:34;7.20;;;4.00;;
42586;SDS011;28216;53.362;-6.288;2023-06-19T05:23:02;8.82;;;4.10;;
42586;SDS011;28216;53.362;-6.288;2023-06-19T05:25:30;8.57;;;3.95;;
42586;SDS011;28216;53.362;-6.288;2023-06-19T05:27:58;6.97;;;3.92;;
42586;SDS011;28216;53.362;-6.288;2023-06-19T05:30:29;7.20;;;3.78;;
42586;SDS011;28216;53.362;-6.288;2023-06-19T05:32:55;8.05;;;4.03;;
42586;SDS011;28216;53.362;-6.288;2023-06-19T05:35:26;8.27;;;4.18;;
42586;SDS011;28216;53.362;-6.288;2023-06-19T05:37:52;8.23;;;4.10;;
42586;SDS011;28216;53.362;-6.288;2023-06-19T05:40:27;8.18;;;3.80;;
42586;SDS011;28216;53.362;-6.288;2023-06-19T05:42:55;10.40;;;4.07;;
42586;SDS011;28216;53.362;-6.288;2023-06-19T05:45:21;8.38;;;4.10;;
42586;SDS011;28216;53.362;-6.288;2023-06-19T05:47:49;8.23;;;3.90;;
42586;SDS011;28216;53.362;-6.288;2023-06-19T05:50:17;9.68;;;3.88;;
42586;SDS011;28216;53.362;-6.288;2023-06-19T05:52:42;8.80;;;3.70;;
42586;SDS011;28216;53.362;-6.288;2023-06-19T05:55:08;6.97;;;3.70;;
42586;SDS011;28216;53.362;-6.288;2023-06-19T05:57:35;6.07;;;3.50;;
42586;SDS011;28216;53.362;-6.288;2023-06-19T06:00:03;6.70;;;3.40;;
42586;SDS011;28216;53.362;-6.288;2023-06-19T06:02:35;9.10;;;3.17;;
42586;SDS011;28216;53.362;-6.288;2023-06-19T06:05:01;7.35;;;3.22;;
42586;SDS011;28216;53.362;-6.288;2023-06-19T06:10:53;5.00;;;3.00;;
42586;SDS011;28216;53.362;-6.288;2023-06-19T06:13:28;5.50;;;3.10;;
42586;SDS011;28216;53.362;-6.288;2023-06-19T06:15:54;6.38;;;3.10;;
42586;SDS011;28216;53.362;-6.288;2023-06-19T06:18:29;6.25;;;3.22;;
42586;SDS011;28216;53.362;-6.288;2023-06-19T06:27:43;5.50;;;2.58;;
42586;SDS011;28216;53.362;-6.288;2023-06-19T06:33:58;6.63;;;2.85;;
42586;SDS011;28216;53.362;-6.288;2023-06-19T06:36:38;4.53;;;2.58;;
42586;SDS011;28216;53.362;-6.288;2023-06-19T06:39:11;5.05;;;2.67;;
42586;SDS011;28216;53.362;-6.288;2023-06-19T06:42:25;5.57;;;2.80;;
42586;SDS011;28216;53.362;-6.288;2023-06-19T06:45:28;4.68;;;2.70;;
42586;SDS011;28216;53.362;-6.288;2023-06-19T06:48:07;4.97;;;2.70;;
42586;SDS011;28216;53.362;-6.288;2023-06-19T06:50:33;5.78;;;2.88;;
42586;SDS011;28216;53.362;-6.288;2023-06-19T06:53:23;6.30;;;3.03;;
42586;SDS011;28216;53.362;-6.288;2023-06-19T06:55:58;6.93;;;2.75;;
42586;SDS011;28216;53.362;-6.288;2023-06-19T06:58:43;4.93;;;2.53;;
42586;SDS011;28216;53.362;-6.288;2023-06-19T07:01:11;5.68;;;2.78;;
42586;SDS011;28216;53.362;-6.288;2023-06-19T07:03:57;3.95;;;2.40;;
42586;SDS011;28216;53.362;-6.288;2023-06-19T07:09:01;4.95;;;2.38;;
42586;SDS011;28216;53.362;-6.288;2023-06-19T07:11:27;7.55;;;2.70;;
42586;SDS011;28216;53.362;-6.288;2023-06-19T07:14:08;4.07;;;2.60;;
42586;SDS011;28216;53.362;-6.288;2023-06-19T07:17:01;3.15;;;2.40;;
42586;SDS011;28216;53.362;-6.288;2023-06-19T07:19:54;4.80;;;2.80;;
42586;SDS011;28216;53.362;-6.288;2023-06-19T07:22:26;4.30;;;2.58;;
42586;SDS011;28216;53.362;-6.288;2023-06-19T07:25:10;4.20;;;2.30;;
42586;SDS011;28216;53.362;-6.288;2023-06-19T07:27:36;3.97;;;2.15;;
42586;SDS011;28216;53.362;-6.288;2023-06-19T07:30:04;4.75;;;2.50;;
42586;SDS011;28216;53.362;-6.288;2023-06-19T07:32:35;5.93;;;2.30;;
42586;SDS011;28216;53.362;-6.288;2023-06-19T07:35:04;4.97;;;2.72;;
42586;SDS011;28216;53.362;-6.288;2023-06-19T07:37:40;6.10;;;2.47;;
42586;SDS011;28216;53.362;-6.288;2023-06-19T07:40:09;3.35;;;2.00;;
42586;SDS011;28216;53.362;-6.288;2023-06-19T07:42:37;3.92;;;2.22;;
42586;SDS011;28216;53.362;-6.288;2023-06-19T07:45:03;4.30;;;2.25;;
42586;SDS011;28216;53.362;-6.288;2023-06-19T08:00:34;5.03;;;2.38;;
42586;SDS011;28216;53.362;-6.288;2023-06-19T08:03:41;5.18;;;2.47;;
42586;SDS011;28216;53.362;-6.288;2023-06-19T08:06:33;4.30;;;2.40;;
42586;SDS011;28216;53.362;-6.288;2023-06-19T08:09:39;4.43;;;2.30;;
42586;SDS011;28216;53.362;-6.288;2023-06-19T08:35:12;4.53;;;2.45;;
42586;SDS011;28216;53.362;-6.288;2023-06-19T08:37:52;3.97;;;2.30;;
42586;SDS011;28216;53.362;-6.288;2023-06-19T08:40:30;4.40;;;2.30;;
42586;SDS011;28216;53.362;-6.288;2023-06-19T08:47:06;3.40;;;2.15;;
42586;SDS011;28216;53.362;-6.288;2023-06-19T09:09:57;2.85;;;2.08;;
42586;SDS011;28216;53.362;-6.288;2023-06-19T09:12:23;4.38;;;2.10;;
42586;SDS011;28216;53.362;-6.288;2023-06-19T09:18:24;4.13;;;2.03;;
42586;SDS011;28216;53.362;-6.288;2023-06-19T09:20:59;4.68;;;2.00;;
42586;SDS011;28216;53.362;-6.288;2023-06-19T09:23:43;3.83;;;1.98;;
42586;SDS011;28216;53.362;-6.288;2023-06-19T09:26:16;3.78;;;2.15;;
42586;SDS011;28216;53.362;-6.288;2023-06-19T10:10:47;2.63;;;1.85;;
42586;SDS011;28216;53.362;-6.288;2023-06-19T10:23:24;3.22;;;2.30;;
42586;SDS011;28216;53.362;-6.288;2023-06-19T10:28:45;4.95;;;2.20;;
42586;SDS011;28216;53.362;-6.288;2023-06-19T10:31:12;2.58;;;1.90;;
42586;SDS011;28216;53.362;-6.288;2023-06-19T10:33:47;2.35;;;1.92;;
42586;SDS011;28216;53.362;-6.288;2023-06-19T11:06:49;5.13;;;1.98;;
42586;SDS011;28216;53.362;-6.288;2023-06-19T11:09:20;3.22;;;2.20;;
42586;SDS011;28216;53.362;-6.288;2023-06-19T11:11:48;2.53;;;2.10;;
42586;SDS011;28216;53.362;-6.288;2023-06-19T11:14:28;2.83;;;2.05;;
42586;SDS011;28216;53.362;-6.288;2023-06-19T11:17:10;5.30;;;2.00;;
42586;SDS011;28216;53.362;-6.288;2023-06-19T11:19:38;3.75;;;1.80;;
42586;SDS011;28216;53.362;-6.288;2023-06-19T11:22:07;5.55;;;1.80;;
42586;SDS011;28216;53.362;-6.288;2023-06-19T11:27:27;2.45;;;1.75;;
42586;SDS011;28216;53.362;-6.288;2023-06-19T11:30:00;4.35;;;2.05;;
42586;SDS011;28216;53.362;-6.288;2023-06-19T11:32:34;2.47;;;1.90;;
42586;SDS011;28216;53.362;-6.288;2023-06-19T11:35:09;2.97;;;1.90;;
42586;SDS011;28216;53.362;-6.288;2023-06-19T11:37:44;5.30;;;1.98;;
42586;SDS011;28216;53.362;-6.288;2023-06-19T11:40:15;3.17;;;1.90;;
42586;SDS011;28216;53.362;-6.288;2023-06-19T11:42:47;2.55;;;1.73;;
42586;SDS011;28216;53.362;-6.288;2023-06-19T11:45:14;4.32;;;2.10;;
42586;SDS011;28216;53.362;-6.288;2023-06-19T11:47:47;3.90;;;1.88;;
42586;SDS011;28216;53.362;-6.288;2023-06-19T11:50:26;2.08;;;1.75;;
42586;SDS011;28216;53.362;-6.288;2023-06-19T11:53:16;4.13;;;2.00;;
42586;SDS011;28216;53.362;-6.288;2023-06-19T11:55:51;4.72;;;2.20;;
42586;SDS011;28216;53.362;-6.288;2023-06-19T11:58:27;4.18;;;2.22;;
42586;SDS011;28216;53.362;-6.288;2023-06-19T12:00:52;2.67;;;2.20;;
42586;SDS011;28216;53.362;-6.288;2023-06-19T12:03:23;2.42;;;1.95;;
42586;SDS011;28216;53.362;-6.288;2023-06-19T12:05:54;4.57;;;2.10;;
42586;SDS011;28216;53.362;-6.288;2023-06-19T12:08:24;6.10;;;2.30;;
42586;SDS011;28216;53.362;-6.288;2023-06-19T12:10:52;3.13;;;2.15;;
42586;SDS011;28216;53.362;-6.288;2023-06-19T12:13:33;2.60;;;2.03;;
42586;SDS011;28216;53.362;-6.288;2023-06-19T12:16:01;2.50;;;2.03;;
42586;SDS011;28216;53.362;-6.288;2023-06-19T12:18:28;2.55;;;2.22;;
42586;SDS011;28216;53.362;-6.288;2023-06-19T12:20:55;3.90;;;2.20;;
42586;SDS011;28216;53.362;-6.288;2023-06-19T12:23:21;3.28;;;2.20;;
42586;SDS011;28216;53.362;-6.288;2023-06-19T12:25:49;2.22;;;2.03;;
42586;SDS011;28216;53.362;-6.288;2023-06-19T12:28:15;2.03;;;1.83;;
42586;SDS011;28216;53.362;-6.288;2023-06-19T12:30:46;4.40;;;1.98;;
42586;SDS011;28216;53.362;-6.288;2023-06-19T12:33:23;4.03;;;1.90;;
42586;SDS011;28216;53.362;-6.288;2023-06-19T12:35:58;3.47;;;1.98;;
42586;SDS011;28216;53.362;-6.288;2023-06-19T12:38:24;2.17;;;1.85;;
42586;SDS011;28216;53.362;-6.288;2023-06-19T12:40:52;2.55;;;1.80;;
42586;SDS011;28216;53.362;-6.288;2023-06-19T12:43:20;3.53;;;1.70;;
42586;SDS011;28216;53.362;-6.288;2023-06-19T12:45:58;2.78;;;1.90;;
42586;SDS011;28216;53.362;-6.288;2023-06-19T12:48:26;2.85;;;2.10;;
42586;SDS011;28216;53.362;-6.288;2023-06-19T12:50:52;3.45;;;1.83;;
42586;SDS011;28216;53.362;-6.288;2023-06-19T12:53:17;2.20;;;1.92;;
42586;SDS011;28216;53.362;-6.288;2023-06-19T12:55:56;4.53;;;2.00;;
42586;SDS011;28216;53.362;-6.288;2023-06-19T12:58:21;3.00;;;1.90;;
42586;SDS011;28216;53.362;-6.288;2023-06-19T13:00:49;4.63;;;2.20;;
42586;SDS011;28216;53.362;-6.288;2023-06-19T13:03:15;5.10;;;2.13;;
42586;SDS011;28216;53.362;-6.288;2023-06-19T13:05:44;3.53;;;2.17;;
42586;SDS011;28216;53.362;-6.288;2023-06-19T13:08:10;3.17;;;1.92;;
42586;SDS011;28216;53.362;-6.288;2023-06-19T13:10:36;2.20;;;2.00;;
42586;SDS011;28216;53.362;-6.288;2023-06-19T13:13:11;1.92;;;1.75;;
42586;SDS011;28216;53.362;-6.288;2023-06-19T13:15:39;2.92;;;1.85;;
42586;SDS011;28216;53.362;-6.288;2023-06-19T13:18:09;2.53;;;1.80;;
42586;SDS011;28216;53.362;-6.288;2023-06-19T13:20:35;2.10;;;1.80;;
42586;SDS011;28216;53.362;-6.288;2023-06-19T13:23:03;2.78;;;2.00;;
42586;SDS011;28216;53.362;-6.288;2023-06-19T13:25:34;2.05;;;1.65;;
42586;SDS011;28216;53.362;-6.288;2023-06-19T13:28:04;2.20;;;1.70;;
42586;SDS011;28216;53.362;-6.288;2023-06-19T13:30:30;2.20;;;1.73;;
42586;SDS011;28216;53.362;-6.288;2023-06-19T13:32:56;5.50;;;1.83;;
42586;SDS011;28216;53.362;-6.288;2023-06-19T13:35:24;3.17;;;1.90;;
42586;SDS011;28216;53.362;-6.288;2023-06-19T13:37:50;3.20;;;1.95;;
42586;SDS011;28216;53.362;-6.288;2023-06-19T13:40:15;3.80;;;1.80;;
42586;SDS011;28216;53.362;-6.288;2023-06-19T13:42:52;2.33;;;1.70;;
42586;SDS011;28216;53.362;-6.288;2023-06-19T13:45:32;2.67;;;1.60;;
42586;SDS011;28216;53.362;-6.288;2023-06-19T13:48:08;2.65;;;1.75;;
42586;SDS011;28216;53.362;-6.288;2023-06-19T13:50:41;3.08;;;1.88;;
42586;SDS011;28216;53.362;-6.288;2023-06-19T13:53:11;3.35;;;1.80;;
42586;SDS011;28216;53.362;-6.288;2023-06-19T13:56:15;2.33;;;1.60;;
42586;SDS011;28216;53.362;-6.288;2023-06-19T13:58:51;3.05;;;1.77;;
42586;SDS011;28216;53.362;-6.288;2023-06-19T14:01:36;1.50;;;1.40;;
42586;SDS011;28216;53.362;-6.288;2023-06-19T14:04:08;1.67;;;1.40;;
42586;SDS011;28216;53.362;-6.288;2023-06-19T14:06:39;1.65;;;1.55;;
42586;SDS011;28216;53.362;-6.288;2023-06-19T14:09:07;1.80;;;1.60;;
42586;SDS011;28216;53.362;-6.288;2023-06-19T14:11:35;2.45;;;1.70;;
42586;SDS011;28216;53.362;-6.288;2023-06-19T14:14:24;5.22;;;1.77;;
42586;SDS011;28216;53.362;-6.288;2023-06-19T14:16:52;2.55;;;2.00;;
42586;SDS011;28216;53.362;-6.288;2023-06-19T14:19:18;2.67;;;1.50;;
42586;SDS011;28216;53.362;-6.288;2023-06-19T14:24:24;2.58;;;1.58;;
42586;SDS011;28216;53.362;-6.288;2023-06-19T14:27:05;3.70;;;1.58;;
42586;SDS011;28216;53.362;-6.288;2023-06-19T14:29:41;3.33;;;1.60;;
42586;SDS011;28216;53.362;-6.288;2023-06-19T14:32:09;1.92;;;1.55;;
42586;SDS011;28216;53.362;-6.288;2023-06-19T14:35:00;2.03;;;1.63;;
42586;SDS011;28216;53.362;-6.288;2023-06-19T14:37:26;5.15;;;1.80;;
42586;SDS011;28216;53.362;-6.288;2023-06-19T14:39:52;3.70;;;1.90;;
42586;SDS011;28216;53.362;-6.288;2023-06-19T14:42:17;9.93;;;2.00;;
42586;SDS011;28216;53.362;-6.288;2023-06-19T14:44:45;1.50;;;1.40;;
42586;SDS011;28216;53.362;-6.288;2023-06-19T14:47:13;1.83;;;1.30;;
42586;SDS011;28216;53.362;-6.288;2023-06-19T14:49:46;2.80;;;1.60;;
42586;SDS011;28216;53.362;-6.288;2023-06-19T14:52:13;2.95;;;1.95;;
42586;SDS011;28216;53.362;-6.288;2023-06-19T14:54:47;3.97;;;1.92;;
42586;SDS011;28216;53.362;-6.288;2023-06-19T14:57:15;3.03;;;1.75;;
42586;SDS011;28216;53.362;-6.288;2023-06-19T14:59:46;4.88;;;1.90;;
42586;SDS011;28216;53.362;-6.288;2023-06-19T15:02:14;3.35;;;2.00;;
42586;SDS011;28216;53.362;-6.288;2023-06-19T15:04:42;6.25;;;2.63;;
42586;SDS011;28216;53.362;-6.288;2023-06-19T15:07:18;6.55;;;2.50;;
42586;SDS011;28216;53.362;-6.288;2023-06-19T15:09:50;3.88;;;2.13;;
42586;SDS011;28216;53.362;-6.288;2023-06-19T15:12:29;2.90;;;2.03;;
42586;SDS011;28216;53.362;-6.288;2023-06-19T15:14:54;6.97;;;1.95;;
42586;SDS011;28216;53.362;-6.288;2023-06-19T15:17:23;7.55;;;2.42;;
42586;SDS011;28216;53.362;-6.288;2023-06-19T15:19:51;2.50;;;2.10;;
42586;SDS011;28216;53.362;-6.288;2023-06-19T15:22:24;3.88;;;1.70;;
42586;SDS011;28216;53.362;-6.288;2023-06-19T15:24:53;4.18;;;2.20;;
42586;SDS011;28216;53.362;-6.288;2023-06-19T15:27:18;4.38;;;1.90;;
42586;SDS011;28216;53.362;-6.288;2023-06-19T15:32:38;2.15;;;1.75;;
42586;SDS011;28216;53.362;-6.288;2023-06-19T15:35:07;2.00;;;1.73;;
42586;SDS011;28216;53.362;-6.288;2023-06-19T15:37:34;2.45;;;1.80;;
42586;SDS011;28216;53.362;-6.288;2023-06-19T15:40:02;3.88;;;1.90;;
42586;SDS011;28216;53.362;-6.288;2023-06-19T15:42:29;2.50;;;2.30;;
42586;SDS011;28216;53.362;-6.288;2023-06-19T15:44:57;2.40;;;2.15;;
42586;SDS011;28216;53.362;-6.288;2023-06-19T15:47:27;2.50;;;2.10;;
42586;SDS011;28216;53.362;-6.288;2023-06-19T15:50:03;2.40;;;2.10;;
42586;SDS011;28216;53.362;-6.288;2023-06-19T15:52:29;2.40;;;2.10;;
42586;SDS011;28216;53.362;-6.288;2023-06-19T15:58:26;3.30;;;2.40;;
42586;SDS011;28216;53.362;-6.288;2023-06-19T16:00:54;4.15;;;2.35;;
42586;SDS011;28216;53.362;-6.288;2023-06-19T16:03:20;3.95;;;2.33;;
42586;SDS011;28216;53.362;-6.288;2023-06-19T16:05:51;3.60;;;2.50;;
42586;SDS011;28216;53.362;-6.288;2023-06-19T16:08:17;4.00;;;2.47;;
42586;SDS011;28216;53.362;-6.288;2023-06-19T16:11:09;4.30;;;2.35;;
42586;SDS011;28216;53.362;-6.288;2023-06-19T16:13:56;5.78;;;2.33;;
42586;SDS011;28216;53.362;-6.288;2023-06-19T16:16:24;3.67;;;2.10;;
42586;SDS011;28216;53.362;-6.288;2023-06-19T16:19:18;4.00;;;2.28;;
42586;SDS011;28216;53.362;-6.288;2023-06-19T16:21:47;2.47;;;2.28;;
42586;SDS011;28216;53.362;-6.288;2023-06-19T16:24:15;2.45;;;2.25;;
42586;SDS011;28216;53.362;-6.288;2023-06-19T16:29:43;5.68;;;2.30;;
42586;SDS011;28216;53.362;-6.288;2023-06-19T16:32:30;3.70;;;2.20;;
42586;SDS011;28216;53.362;-6.288;2023-06-19T16:35:37;17.70;;;7.43;;
42586;SDS011;28216;53.362;-6.288;2023-06-19T16:38:03;15.23;;;5.25;;
42586;SDS011;28216;53.362;-6.288;2023-06-19T16:40:30;6.50;;;3.15;;
42586;SDS011;28216;53.362;-6.288;2023-06-19T16:42:57;7.20;;;3.55;;
42586;SDS011;28216;53.362;-6.288;2023-06-19T16:45:24;3.65;;;2.72;;
42586;SDS011;28216;53.362;-6.288;2023-06-19T16:47:55;7.03;;;3.22;;
42586;SDS011;28216;53.362;-6.288;2023-06-19T16:50:34;4.97;;;2.70;;
42586;SDS011;28216;53.362;-6.288;2023-06-19T16:53:08;3.13;;;1.90;;
42586;SDS011;28216;53.362;-6.288;2023-06-19T16:55:40;2.38;;;1.60;;
42586;SDS011;28216;53.362;-6.288;2023-06-19T16:58:09;3.58;;;2.17;;
42586;SDS011;28216;53.362;-6.288;2023-06-19T17:00:59;3.30;;;2.10;;
42586;SDS011;28216;53.362;-6.288;2023-06-19T17:03:36;2.72;;;1.73;;
42586;SDS011;28216;53.362;-6.288;2023-06-19T17:06:15;4.03;;;2.40;;
42586;SDS011;28216;53.362;-6.288;2023-06-19T17:11:38;3.15;;;2.15;;
42586;SDS011;28216;53.362;-6.288;2023-06-19T17:14:12;2.65;;;2.17;;
42586;SDS011;28216;53.362;-6.288;2023-06-19T17:17:10;3.75;;;2.00;;
42586;SDS011;28216;53.362;-6.288;2023-06-19T17:22:27;4.97;;;2.40;;
42586;SDS011;28216;53.362;-6.288;2023-06-19T17:25:18;3.58;;;2.50;;
42586;SDS011;28216;53.362;-6.288;2023-06-19T17:27:46;4.90;;;2.47;;
42586;SDS011;28216;53.362;-6.288;2023-06-19T17:30:15;4.53;;;2.40;;
42586;SDS011;28216;53.362;-6.288;2023-06-19T17:32:43;3.22;;;2.42;;
42586;SDS011;28216;53.362;-6.288;2023-06-19T17:35:15;2.85;;;2.47;;
42586;SDS011;28216;53.362;-6.288;2023-06-19T17:38:14;5.20;;;2.90;;
42586;SDS011;28216;53.362;-6.288;2023-06-19T17:40:40;3.78;;;2.70;;
42586;SDS011;28216;53.362;-6.288;2023-06-19T17:43:11;5.35;;;2.90;;
42586;SDS011;28216;53.362;-6.288;2023-06-19T17:45:43;5.90;;;3.13;;
42586;SDS011;28216;53.362;-6.288;2023-06-19T17:48:13;5.53;;;3.22;;
42586;SDS011;28216;53.362;-6.288;2023-06-19T17:53:50;5.47;;;2.95;;
42586;SDS011;28216;53.362;-6.288;2023-06-19T17:56:44;5.20;;;2.75;;
42586;SDS011;28216;53.362;-6.288;2023-06-19T17:59:33;4.70;;;3.38;;
42586;SDS011;28216;53.362;-6.288;2023-06-19T18:02:02;7.50;;;2.58;;
42586;SDS011;28216;53.362;-6.288;2023-06-19T18:04:30;4.78;;;2.97;;
42586;SDS011;28216;53.362;-6.288;2023-06-19T18:07:03;4.75;;;3.38;;
42586;SDS011;28216;53.362;-6.288;2023-06-19T18:09:33;6.88;;;3.40;;
42586;SDS011;28216;53.362;-6.288;2023-06-19T18:12:12;6.03;;;3.35;;
42586;SDS011;28216;53.362;-6.288;2023-06-19T18:14:39;7.88;;;3.42;;
42586;SDS011;28216;53.362;-6.288;2023-06-19T18:17:05;5.20;;;3.13;;
42586;SDS011;28216;53.362;-6.288;2023-06-19T18:19:30;4.65;;;3.08;;